Time;durP1;ratioP1;P1;durP2;ratioP2;P2;SDS_P1;SDS_P2;PMS_P1;PMS_P2;Temp;Humidity;BMP_temperature;BMP_pressure;BME280_temperature;BME280_humidity;BME280_pressure;Samples;Min_cycle;Max_cycle;Signal;HPM_P1;HPM_P2
2022/01/20 00:00:02;;;;;;;18.63;6.25;;;;;;;2.64;100.00;99999.06;4996573;28;20123;-62
2022/01/20 00:02:30;;;;;;;16.80;5.63;;;;;;;2.60;100.00;100011.81;4988532;28;20044;-62
2022/01/20 00:05:12;;;;;;;29.63;7.18;;;;;;;2.65;100.00;100020.06;4992656;28;20034;-61
2022/01/20 00:26:24;;;;;;;45.75;10.80;;;;;;;3.24;98.00;100028.38;4986937;28;20034;-62
2022/01/20 00:28:53;;;;;;;48.17;9.93;;;;;;;3.19;97.96;100030.69;4992991;28;20463;-62
2022/01/20 00:33:49;;;;;;;37.17;9.15;;;;;;;3.26;98.24;100035.31;4988894;28;20100;-61
2022/01/20 00:38:58;;;;;;;45.03;8.80;;;;;;;3.28;97.70;100038.63;4992783;28;20276;-62
2022/01/20 00:41:24;;;;;;;36.88;8.38;;;;;;;3.36;96.10;100022.66;4984632;28;20527;-62
2022/01/20 00:43:49;;;;;;;40.55;8.68;;;;;;;3.29;95.91;100027.00;4983772;28;20114;-62
2022/01/20 00:46:15;;;;;;;44.90;9.00;;;;;;;3.17;95.20;100019.47;4990152;28;20034;-61
2022/01/20 00:48:40;;;;;;;35.65;8.23;;;;;;;3.16;93.77;100022.28;4994915;28;20034;-61
2022/01/20 00:51:06;;;;;;;45.38;8.27;;;;;;;3.12;94.29;100021.84;4990514;28;20041;-62
2022/01/20 00:53:31;;;;;;;41.58;7.40;;;;;;;3.05;94.60;100028.81;4989327;28;20038;-62
2022/01/20 00:55:56;;;;;;;38.25;7.00;;;;;;;3.00;95.22;100028.53;4984501;28;20046;-61
2022/01/20 00:58:22;;;;;;;38.75;6.80;;;;;;;2.99;94.97;100027.66;4993971;28;20080;-61
2022/01/20 01:00:47;;;;;;;28.65;6.35;;;;;;;2.96;95.34;100033.31;4989686;28;20050;-62
2022/01/20 01:03:13;;;;;;;36.33;6.55;;;;;;;2.91;94.92;100042.78;4986131;28;20114;-62
2022/01/20 01:05:51;;;;;;;22.55;5.60;;;;;;;2.88;95.08;100043.97;4985320;28;20043;-61
2022/01/20 01:08:16;;;;;;;41.10;6.88;;;;;;;2.86;95.21;100051.25;4992123;28;20076;-61
2022/01/20 01:10:44;;;;;;;49.38;5.85;;;;;;;2.93;94.70;100038.16;4989644;28;20230;-61
2022/01/20 01:13:13;;;;;;;35.83;6.38;;;;;;;2.85;94.18;100039.00;5004178;28;20033;-61
2022/01/20 01:15:43;;;;;;;29.52;5.20;;;;;;;2.88;93.49;100040.50;4996708;28;20058;-61
2022/01/20 01:23:25;;;;;;;36.25;4.90;;;;;;;2.94;93.25;100053.03;4984627;28;20040;-62
2022/01/20 01:25:51;;;;;;;36.80;5.18;;;;;;;2.93;93.03;100059.34;4993896;28;20164;-62
2022/01/20 01:28:18;;;;;;;44.80;6.53;;;;;;;2.83;93.58;100054.25;4989059;28;20018;-62
2022/01/20 01:33:29;;;;;;;43.25;6.43;;;;;;;2.93;92.59;100077.88;4982046;28;20105;-61
2022/01/20 01:35:57;;;;;;;26.42;5.20;;;;;;;2.90;93.24;100083.53;4991667;28;20077;-62
2022/01/20 01:38:36;;;;;;;27.83;5.05;;;;;;;2.90;93.01;100097.56;4978996;28;20035;-62
2022/01/20 01:41:05;;;;;;;31.27;5.82;;;;;;;2.84;93.49;100086.84;4988125;28;20046;-62
2022/01/20 01:43:32;;;;;;;30.42;5.75;;;;;;;2.86;93.55;100090.16;4988030;28;20167;-61
2022/01/20 01:46:00;;;;;;;30.23;5.53;;;;;;;2.92;92.72;100100.03;4988567;28;20323;-61
2022/01/20 01:48:26;;;;;;;27.80;5.65;;;;;;;2.93;91.76;100091.94;4989891;28;20037;-62
2022/01/20 01:50:52;;;;;;;29.23;5.65;;;;;;;2.94;91.72;100096.22;4983434;28;20055;-61
2022/01/20 01:53:17;;;;;;;34.17;6.10;;;;;;;2.85;92.19;100086.69;4986762;28;20026;-62
2022/01/20 01:55:43;;;;;;;32.08;7.30;;;;;;;2.78;92.48;100081.22;4990130;28;20633;-62
2022/01/20 01:58:08;;;;;;;42.42;5.70;;;;;;;2.67;92.96;100083.41;4987503;28;20137;-61
2022/01/20 02:00:34;;;;;;;26.95;5.88;;;;;;;2.68;93.06;100091.19;5001108;28;20065;-62
2022/01/20 02:03:00;;;;;;;24.00;6.13;;;;;;;2.66;93.08;100090.53;4993290;28;20034;-61
2022/01/20 02:05:26;;;;;;;29.30;5.55;;;;;;;2.68;92.83;100088.53;4993139;28;20077;-61
2022/01/20 02:21:06;;;;;;;32.90;5.97;;;;;;;2.48;92.81;100079.34;4990826;28;20044;-61
2022/01/20 02:23:32;;;;;;;45.65;7.60;;;;;;;2.44;92.79;100080.66;4985713;28;20025;-61
2022/01/20 02:25:58;;;;;;;30.92;6.57;;;;;;;2.35;93.19;100074.56;4986605;28;20123;-61
2022/01/20 02:28:23;;;;;;;39.80;6.50;;;;;;;2.32;94.33;100075.75;4988397;28;20847;-61
2022/01/20 02:30:49;;;;;;;38.13;5.85;;;;;;;2.22;94.09;100074.25;4981501;28;20444;-62
2022/01/20 02:33:19;;;;;;;32.67;5.75;;;;;;;2.10;94.47;100079.06;4996931;28;20030;-62
2022/01/20 02:35:53;;;;;;;32.42;5.88;;;;;;;2.08;94.93;100059.91;4990139;28;20042;-62
2022/01/20 02:38:26;;;;;;;41.80;5.82;;;;;;;2.00;94.47;100073.97;4987312;28;20030;-62
2022/01/20 02:46:19;;;;;;;34.90;6.07;;;;;;;2.14;94.69;100091.78;4992371;28;20052;-61
2022/01/20 02:48:45;;;;;;;39.15;6.20;;;;;;;2.15;94.92;100088.16;4987596;28;20034;-61
2022/01/20 02:51:10;;;;;;;27.95;5.28;;;;;;;2.13;94.92;100084.03;4989458;28;20068;-62
2022/01/20 02:53:36;;;;;;;34.40;5.40;;;;;;;2.17;94.60;100074.75;4991928;28;20429;-61
2022/01/20 02:56:01;;;;;;;27.33;4.97;;;;;;;2.19;94.79;100078.06;4991918;28;20074;-62
2022/01/20 02:58:27;;;;;;;32.88;5.07;;;;;;;2.15;94.49;100076.75;4993264;28;20033;-62
2022/01/20 03:00:52;;;;;;;36.45;6.25;;;;;;;2.22;95.31;100077.75;4992011;28;20054;-61
2022/01/20 03:03:18;;;;;;;22.73;5.57;;;;;;;2.27;94.65;100078.06;4983230;28;20050;-62
2022/01/20 03:05:43;;;;;;;26.92;4.70;;;;;;;2.28;93.80;100079.72;4979816;28;20050;-62
2022/01/20 03:08:09;;;;;;;23.63;4.57;;;;;;;2.36;95.70;100079.69;4991704;28;20112;-62
2022/01/20 03:10:34;;;;;;;29.48;4.45;;;;;;;2.33;94.18;100077.38;4984874;28;20038;-62
2022/01/20 03:12:59;;;;;;;34.45;4.57;;;;;;;2.34;93.21;100070.25;4987542;28;20571;-61
2022/01/20 03:15:25;;;;;;;35.40;5.22;;;;;;;2.38;92.17;100064.47;4965068;28;20093;-62
2022/01/20 03:17:50;;;;;;;36.50;4.38;;;;;;;2.48;92.23;100077.53;4984768;28;20415;-62
2022/01/20 03:20:16;;;;;;;20.17;3.58;;;;;;;2.41;91.68;100070.44;4989834;28;20026;-62
2022/01/20 03:22:41;;;;;;;27.50;4.97;;;;;;;2.46;91.76;100063.63;4986306;28;20096;-62
2022/01/20 03:25:07;;;;;;;24.42;5.22;;;;;;;2.53;91.74;100058.50;4987659;28;20042;-62
2022/01/20 03:27:32;;;;;;;30.58;4.47;;;;;;;2.57;90.96;100055.34;4985182;28;20085;-62
2022/01/20 03:29:58;;;;;;;22.05;3.88;;;;;;;2.55;91.66;100064.44;4983824;28;20030;-62
2022/01/20 03:32:23;;;;;;;23.42;4.07;;;;;;;2.52;91.67;100065.59;4987997;28;20042;-62
2022/01/20 03:34:49;;;;;;;23.70;4.25;;;;;;;2.52;92.24;100062.13;4985910;28;20038;-62
2022/01/20 03:37:14;;;;;;;20.10;3.67;;;;;;;2.56;91.93;100060.78;4988544;28;20053;-62
2022/01/20 03:39:40;;;;;;;17.75;4.00;;;;;;;2.56;92.23;100055.50;4982221;28;20266;-62
2022/01/20 03:42:05;;;;;;;23.83;5.07;;;;;;;2.57;91.74;100059.78;4979791;28;20054;-62
2022/01/20 03:44:30;;;;;;;30.40;4.70;;;;;;;2.56;91.62;100052.84;4988511;28;20061;-61
2022/01/20 03:46:58;;;;;;;25.42;4.13;;;;;;;2.69;91.43;100058.41;4988880;28;20191;-62
2022/01/20 03:52:15;;;;;;;15.25;3.63;;;;;;;2.81;89.58;100059.69;4979187;28;20046;-62
2022/01/20 03:54:40;;;;;;;35.67;4.38;;;;;;;2.85;90.28;100067.31;4980000;28;20130;-62
2022/01/20 03:57:06;;;;;;;31.60;4.90;;;;;;;2.74;89.90;100061.38;4984043;28;20045;-62
2022/01/20 03:59:31;;;;;;;28.88;5.47;;;;;;;2.86;89.52;100063.66;4984961;28;20035;-62
2022/01/20 04:01:57;;;;;;;31.98;5.13;;;;;;;2.95;88.68;100065.28;4989625;28;20042;-62
2022/01/20 04:04:22;;;;;;;33.42;5.93;;;;;;;2.93;88.99;100067.28;4990095;28;20065;-62
2022/01/20 04:06:47;;;;;;;23.13;3.85;;;;;;;2.88;88.30;100062.50;4986279;28;20081;-62
2022/01/20 04:09:13;;;;;;;14.57;3.90;;;;;;;2.85;88.47;100051.44;4982878;28;20407;-62
2022/01/20 04:11:39;;;;;;;19.48;3.92;;;;;;;2.88;88.52;100049.25;4985440;28;20503;-63
2022/01/20 04:14:04;;;;;;;22.95;4.25;;;;;;;2.89;88.82;100056.19;4988679;28;20022;-62
2022/01/20 04:16:39;;;;;;;21.80;3.75;;;;;;;2.84;88.55;100060.34;4990253;28;20355;-62
2022/01/20 04:19:07;;;;;;;25.83;3.70;;;;;;;2.88;88.11;100059.03;4985129;28;20531;-63
2022/01/20 04:21:33;;;;;;;26.60;3.58;;;;;;;2.85;88.61;100051.44;4987290;28;20455;-62
2022/01/20 04:23:59;;;;;;;18.40;3.28;;;;;;;2.83;89.17;100045.47;4985374;28;20120;-62
2022/01/20 04:26:24;;;;;;;27.00;4.80;;;;;;;2.79;88.77;100044.97;4994810;28;20038;-62
2022/01/20 04:28:55;;;;;;;22.00;3.30;;;;;;;2.77;89.28;100045.19;4989402;28;20440;-60
2022/01/20 04:31:21;;;;;;;22.33;3.63;;;;;;;2.79;88.75;100059.03;4989939;28;20041;-62
2022/01/20 04:33:46;;;;;;;24.08;3.25;;;;;;;2.76;89.33;100035.56;4998126;28;20135;-62
2022/01/20 04:36:12;;;;;;;17.25;3.72;;;;;;;2.76;88.87;100034.75;4991244;28;20049;-60
2022/01/20 04:38:38;;;;;;;17.40;3.28;;;;;;;2.78;89.13;100041.50;4984910;28;20026;-62
2022/01/20 04:41:03;;;;;;;16.10;2.88;;;;;;;2.81;88.98;100051.75;4984884;28;20344;-62
2022/01/20 04:43:29;;;;;;;25.30;3.63;;;;;;;2.80;88.85;100050.13;4997179;28;20782;-62
2022/01/20 04:46:04;;;;;;;23.10;3.88;;;;;;;2.79;89.51;100043.16;4991691;28;20100;-62
2022/01/20 04:49:04;;;;;;;20.98;3.30;;;;;;;2.72;90.14;100031.63;4986873;28;20026;-62
2022/01/20 04:57:17;;;;;;;8.68;2.35;;;;;;;2.67;90.61;100044.56;4984918;28;20058;-62
2022/01/20 04:59:44;;;;;;;15.57;3.00;;;;;;;2.70;89.62;100046.03;4988277;28;20354;-62
2022/01/20 05:02:09;;;;;;;13.40;2.60;;;;;;;2.57;90.39;100049.19;4986668;28;20069;-62
2022/01/20 05:04:35;;;;;;;16.02;2.70;;;;;;;2.62;90.55;100044.25;4988680;28;20046;-62
2022/01/20 05:07:01;;;;;;;14.98;3.65;;;;;;;2.52;90.52;100043.59;4992139;28;20041;-62
2022/01/20 05:09:27;;;;;;;16.15;2.30;;;;;;;2.48;90.94;100042.28;4988591;28;20056;-62
2022/01/20 05:14:24;;;;;;;14.35;2.97;;;;;;;2.41;91.11;100028.09;4992060;28;20045;-62
2022/01/20 05:16:51;;;;;;;16.85;2.60;;;;;;;2.44;90.72;100033.03;4994545;28;20531;-62
2022/01/20 05:19:16;;;;;;;13.82;3.15;;;;;;;2.45;90.45;100030.22;4986595;28;20025;-62
2022/01/20 05:21:42;;;;;;;14.07;2.33;;;;;;;2.46;90.33;100036.34;4986146;28;20038;-62
2022/01/20 05:24:07;;;;;;;16.58;2.78;;;;;;;2.47;90.27;100040.63;4987191;28;20025;-62
2022/01/20 05:26:33;;;;;;;14.48;2.67;;;;;;;2.51;90.09;100052.53;4984182;28;20030;-62
2022/01/20 05:28:58;;;;;;;11.77;2.90;;;;;;;2.57;89.78;100059.78;4994449;28;20704;-62
2022/01/20 05:31:24;;;;;;;16.27;3.08;;;;;;;2.53;90.63;100064.59;4979231;28;20447;-62
2022/01/20 05:33:49;;;;;;;15.90;2.85;;;;;;;2.48;90.46;100060.81;4983970;28;20069;-62
2022/01/20 05:36:15;;;;;;;12.52;2.90;;;;;;;2.48;91.02;100063.47;4985787;28;20045;-62
2022/01/20 05:38:40;;;;;;;20.27;3.40;;;;;;;2.50;90.89;100059.66;4982503;28;20033;-62
2022/01/20 05:41:06;;;;;;;14.73;2.83;;;;;;;2.56;91.53;100064.25;4981246;28;20038;-62
2022/01/20 05:43:31;;;;;;;16.23;2.63;;;;;;;2.63;91.10;100069.69;4985667;28;20144;-62
2022/01/20 05:45:56;;;;;;;14.45;2.90;;;;;;;2.64;91.18;100071.34;4994016;28;20050;-62
2022/01/20 05:48:32;;;;;;;15.77;3.00;;;;;;;2.66;91.02;100058.75;4987106;28;20022;-62
2022/01/20 05:50:58;;;;;;;16.60;3.20;;;;;;;2.67;90.44;100043.72;4996795;28;20056;-62
2022/01/20 05:53:23;;;;;;;14.93;2.80;;;;;;;2.75;89.54;100047.16;4990085;28;20034;-62
2022/01/20 05:55:49;;;;;;;13.55;3.08;;;;;;;2.77;89.27;100034.59;4987478;28;20321;-62
2022/01/20 05:58:14;;;;;;;18.20;3.03;;;;;;;2.74;89.40;100052.63;4988954;28;20018;-62
2022/01/20 06:00:40;;;;;;;21.35;3.85;;;;;;;2.78;88.85;100052.09;4982221;28;20096;-61
2022/01/20 06:05:49;;;;;;;12.52;2.67;;;;;;;2.93;88.50;100056.69;4982318;28;20104;-62
2022/01/20 06:08:15;;;;;;;14.70;2.97;;;;;;;2.89;87.72;100063.31;4995184;28;20042;-62
2022/01/20 06:10:40;;;;;;;15.85;3.13;;;;;;;2.94;87.20;100063.63;4991982;28;20170;-62
2022/01/20 06:13:06;;;;;;;17.98;2.95;;;;;;;2.84;88.26;100070.94;4985364;28;20034;-62
2022/01/20 06:15:31;;;;;;;21.45;2.85;;;;;;;2.85;88.18;100062.84;4989449;28;20045;-62
2022/01/20 06:17:57;;;;;;;23.88;4.35;;;;;;;2.81;87.67;100057.06;4982246;28;20042;-62
2022/01/20 06:20:22;;;;;;;19.80;2.83;;;;;;;2.81;86.44;100054.41;4984560;28;20397;-62
2022/01/20 06:22:48;;;;;;;10.88;2.83;;;;;;;2.88;86.00;100053.72;4986439;28;20262;-62
2022/01/20 06:25:13;;;;;;;18.70;2.65;;;;;;;2.88;85.94;100045.78;4990440;28;20041;-62
2022/01/20 06:27:39;;;;;;;18.23;3.00;;;;;;;2.96;84.51;100054.50;4987636;28;20061;-62
2022/01/20 06:30:05;;;;;;;16.23;2.83;;;;;;;3.07;87.19;100065.72;4986738;28;20290;-62
2022/01/20 06:32:31;;;;;;;19.08;3.00;;;;;;;3.00;87.26;100076.19;4989800;28;20083;-62
2022/01/20 06:34:57;;;;;;;14.60;2.50;;;;;;;2.86;87.36;100079.56;4985519;28;20125;-62
2022/01/20 06:37:22;;;;;;;16.13;2.97;;;;;;;2.87;87.14;100075.91;4985619;28;20691;-62
2022/01/20 06:39:47;;;;;;;26.88;4.47;;;;;;;2.79;86.29;100069.63;4980078;28;20034;-62
2022/01/20 06:42:13;;;;;;;18.10;2.90;;;;;;;2.92;85.92;100076.19;4985660;28;20050;-62
2022/01/20 06:44:38;;;;;;;10.77;3.10;;;;;;;2.86;86.34;100083.03;4976633;28;20074;-62
2022/01/20 06:47:04;;;;;;;23.25;3.20;;;;;;;2.80;86.51;100081.88;4976934;28;20297;-62
2022/01/20 06:49:30;;;;;;;13.85;2.38;;;;;;;2.84;86.28;100078.91;4976146;28;20030;-62
2022/01/20 06:51:55;;;;;;;14.25;2.55;;;;;;;2.85;86.28;100077.91;4982813;28;20042;-62
2022/01/20 06:54:21;;;;;;;12.68;2.63;;;;;;;2.94;87.73;100084.81;4979733;28;20659;-62
2022/01/20 06:56:46;;;;;;;12.30;2.97;;;;;;;2.84;86.37;100087.66;5002048;28;20417;-62
2022/01/20 06:59:13;;;;;;;13.48;2.60;;;;;;;2.87;86.14;100084.69;4981836;28;20033;-62
2022/01/20 07:01:39;;;;;;;18.67;3.13;;;;;;;2.92;86.29;100100.03;4983715;28;20051;-62
2022/01/20 07:04:04;;;;;;;13.77;3.42;;;;;;;2.86;86.50;100101.56;4989011;28;20026;-62
2022/01/20 07:06:29;;;;;;;9.38;2.78;;;;;;;2.85;87.33;100120.28;4991562;28;20047;-62
2022/01/20 07:08:55;;;;;;;11.13;2.50;;;;;;;2.79;88.86;100127.06;4984996;28;20042;-62
2022/01/20 07:11:20;;;;;;;19.20;3.63;;;;;;;2.75;88.65;100121.28;4984859;28;20077;-62
2022/01/20 07:13:46;;;;;;;18.27;3.58;;;;;;;2.83;88.34;100127.56;4987068;28;20506;-62
2022/01/20 07:16:11;;;;;;;17.38;3.33;;;;;;;2.68;89.37;100127.44;4988410;28;20057;-62
2022/01/20 07:18:36;;;;;;;13.13;3.17;;;;;;;2.63;89.64;100137.69;4975745;28;20042;-62
2022/01/20 07:21:02;;;;;;;14.20;2.95;;;;;;;2.59;90.62;100139.84;4975910;28;20065;-62
2022/01/20 07:23:27;;;;;;;19.80;3.47;;;;;;;2.54;91.27;100150.09;4984281;28;20034;-62
2022/01/20 07:25:53;;;;;;;11.48;4.53;;;;;;;2.57;90.40;100155.06;4973123;28;20482;-62
2022/01/20 07:28:18;;;;;;;19.00;4.32;;;;;;;2.65;90.72;100152.41;4964124;28;20035;-61
2022/01/20 07:30:44;;;;;;;16.38;4.75;;;;;;;2.64;91.04;100165.81;4965797;28;20457;-62
2022/01/20 07:33:10;;;;;;;14.27;4.10;;;;;;;2.49;90.48;100165.66;4977290;28;20524;-64
2022/01/20 07:35:36;;;;;;;18.02;5.15;;;;;;;2.52;90.22;100160.03;4980670;28;20092;-62
2022/01/20 07:38:02;;;;;;;19.45;4.70;;;;;;;2.49;91.62;100158.53;4977249;28;20023;-62
2022/01/20 07:40:27;;;;;;;13.00;4.35;;;;;;;2.33;92.15;100156.75;4975097;28;20061;-62
2022/01/20 07:42:52;;;;;;;11.55;4.07;;;;;;;2.35;92.62;100161.88;4987362;28;20035;-62
2022/01/20 07:45:19;;;;;;;7.00;3.97;;;;;;;2.26;93.08;100176.91;4983166;28;20041;-62
2022/01/20 07:47:46;;;;;;;21.17;4.93;;;;;;;2.02;94.98;100184.81;4991618;28;20161;-61
2022/01/20 07:50:12;;;;;;;14.15;3.80;;;;;;;1.84;96.32;100198.19;4986463;28;20027;-62
2022/01/20 07:52:37;;;;;;;7.20;2.88;;;;;;;1.61;95.53;100214.66;4984237;28;20061;-62
2022/01/20 07:55:03;;;;;;;12.70;3.75;;;;;;;1.37;95.93;100244.44;4984593;28;20037;-62
2022/01/20 07:57:28;;;;;;;16.67;2.58;;;;;;;1.10;94.09;100234.91;5005696;28;20068;-61
2022/01/20 07:59:54;;;;;;;9.55;3.13;;;;;;;1.21;91.05;100237.25;4989228;28;20031;-62
2022/01/20 08:02:19;;;;;;;7.15;2.35;;;;;;;1.22;92.13;100249.50;4975516;28;20049;-62
2022/01/20 08:04:45;;;;;;;9.88;2.90;;;;;;;1.17;93.84;100249.13;4982019;28;20030;-63
2022/01/20 08:07:10;;;;;;;16.63;3.50;;;;;;;1.24;94.08;100262.53;4993393;28;20042;-62
2022/01/20 08:09:39;;;;;;;11.60;3.60;;;;;;;1.34;93.69;100271.16;4986738;28;20034;-62
2022/01/20 08:12:05;;;;;;;20.73;4.35;;;;;;;1.41;93.89;100271.38;5010060;28;20045;-61
2022/01/20 08:14:31;;;;;;;24.27;4.10;;;;;;;1.50;94.25;100263.34;4985703;28;20066;-62
2022/01/20 08:16:57;;;;;;;16.60;4.53;;;;;;;1.50;93.98;100265.16;5006385;28;20604;-62
2022/01/20 08:19:22;;;;;;;12.90;4.00;;;;;;;1.54;93.18;100257.72;4991520;28;20348;-62
2022/01/20 08:21:48;;;;;;;19.85;3.95;;;;;;;1.48;92.28;100259.19;4988150;28;20373;-62
2022/01/20 08:24:13;;;;;;;14.35;3.45;;;;;;;1.60;91.42;100263.22;4994633;28;20043;-62
2022/01/20 08:26:39;;;;;;;20.10;4.00;;;;;;;1.71;90.02;100270.03;4985652;28;20042;-62
2022/01/20 08:29:04;;;;;;;20.25;4.20;;;;;;;1.69;90.69;100267.53;4986351;28;20029;-62
2022/01/20 08:31:31;;;;;;;18.05;3.22;;;;;;;1.68;90.06;100275.63;4974320;28;20051;-62
2022/01/20 08:33:56;;;;;;;11.05;3.28;;;;;;;1.67;89.76;100279.25;4994031;28;20100;-62
2022/01/20 08:36:22;;;;;;;16.95;3.38;;;;;;;1.70;89.75;100278.94;4986256;28;20062;-62
2022/01/20 08:38:47;;;;;;;18.25;3.33;;;;;;;1.68;90.42;100275.63;4984969;28;20030;-62
2022/01/20 08:41:12;;;;;;;15.70;4.00;;;;;;;1.78;91.05;100273.69;4985591;28;20042;-61
2022/01/20 08:43:41;;;;;;;16.30;4.72;;;;;;;1.75;90.73;100281.94;4985450;28;20092;-61
2022/01/20 08:46:07;;;;;;;18.27;3.67;;;;;;;1.67;91.08;100274.81;4988564;28;20437;-62
2022/01/20 08:48:34;;;;;;;22.85;5.15;;;;;;;1.64;92.22;100285.69;4990381;28;20034;-62
2022/01/20 08:51:01;;;;;;;27.05;5.47;;;;;;;1.69;90.83;100277.28;5004558;28;20466;-62
2022/01/20 08:53:26;;;;;;;17.98;5.22;;;;;;;1.80;91.08;100279.66;4991202;28;20083;-62
2022/01/20 08:55:52;;;;;;;17.70;6.70;;;;;;;1.84;91.41;100286.25;4983058;28;20839;-62
2022/01/20 08:58:17;;;;;;;19.02;5.88;;;;;;;1.81;91.06;100286.56;4987220;28;20802;-62
2022/01/20 09:00:43;;;;;;;20.77;5.10;;;;;;;1.89;90.20;100285.78;4986425;28;20050;-62
2022/01/20 09:03:09;;;;;;;22.30;5.80;;;;;;;1.96;90.87;100299.19;4981329;28;20084;-62
2022/01/20 09:05:35;;;;;;;18.63;5.40;;;;;;;1.98;90.22;100297.22;4977034;28;20209;-62
2022/01/20 09:08:01;;;;;;;24.92;6.30;;;;;;;1.86;90.24;100305.44;4990254;28;20030;-62
2022/01/20 09:10:28;;;;;;;23.13;5.63;;;;;;;1.90;89.02;100301.50;4988236;28;20057;-62
2022/01/20 09:15:39;;;;;;;19.38;5.60;;;;;;;2.02;86.93;100311.75;4984682;28;20130;-62
2022/01/20 09:18:07;;;;;;;18.23;4.57;;;;;;;1.97;85.87;100303.47;4989060;28;20130;-61
2022/01/20 09:20:33;;;;;;;24.02;4.88;;;;;;;2.02;86.13;100314.41;4986902;28;20265;-62
2022/01/20 09:22:59;;;;;;;19.88;5.13;;;;;;;2.08;87.16;100311.13;4956195;28;20086;-62
2022/01/20 09:25:25;;;;;;;18.75;4.53;;;;;;;1.97;86.48;100306.13;4976485;28;20049;-62
2022/01/20 09:27:51;;;;;;;21.63;4.80;;;;;;;2.23;85.17;100314.81;4988821;28;20077;-62
2022/01/20 09:30:18;;;;;;;15.85;3.47;;;;;;;2.18;85.52;100313.66;5004778;28;20125;-61
2022/01/20 09:32:53;;;;;;;17.63;4.25;;;;;;;2.15;85.36;100325.38;4988614;28;20022;-60
2022/01/20 09:35:19;;;;;;;15.90;4.13;;;;;;;2.29;85.39;100324.72;4988482;28;20046;-60
2022/01/20 09:37:44;;;;;;;25.17;3.75;;;;;;;2.28;86.40;100328.38;4984704;28;20512;-61
2022/01/20 09:40:10;;;;;;;17.75;3.80;;;;;;;2.15;86.44;100320.09;4987291;28;20061;-61
2022/01/20 09:42:35;;;;;;;26.13;3.92;;;;;;;2.08;85.36;100332.28;4993681;28;20088;-60
2022/01/20 09:45:01;;;;;;;25.67;3.97;;;;;;;1.93;84.55;100327.59;4985980;28;20447;-61
2022/01/20 09:47:26;;;;;;;20.58;3.45;;;;;;;1.96;85.25;100331.75;4992763;28;20029;-61
2022/01/20 09:49:54;;;;;;;11.32;3.03;;;;;;;1.91;83.26;100342.78;4980651;28;20047;-60
2022/01/20 09:52:20;;;;;;;16.23;3.63;;;;;;;1.94;82.93;100339.81;4970583;28;20042;-61
2022/01/20 09:54:45;;;;;;;18.73;3.85;;;;;;;1.85;83.90;100346.09;4970926;28;20034;-60
2022/01/20 09:57:11;;;;;;;22.75;3.60;;;;;;;1.91;84.41;100350.72;4986517;28;20756;-60
2022/01/20 09:59:36;;;;;;;16.98;3.38;;;;;;;1.93;84.36;100343.47;4984736;28;20396;-60
2022/01/20 10:02:02;;;;;;;24.65;3.88;;;;;;;1.83;83.54;100363.09;4987156;28;20046;-61
2022/01/20 10:04:32;;;;;;;15.98;4.05;;;;;;;1.81;85.92;100370.34;4977009;28;20062;-61
2022/01/20 10:06:59;;;;;;;15.68;3.80;;;;;;;1.84;86.35;100373.50;4973790;28;20046;-60
2022/01/20 10:09:39;;;;;;;12.63;3.08;;;;;;;1.62;83.59;100374.03;4974044;28;20025;-61
2022/01/20 10:12:06;;;;;;;16.90;3.35;;;;;;;1.54;84.99;100368.72;4972294;28;20050;-61
2022/01/20 10:14:45;;;;;;;26.80;6.57;;;;;;;1.50;86.12;100373.50;4977170;28;20068;-61
2022/01/20 10:17:22;;;;;;;22.38;7.03;;;;;;;1.49;86.88;100377.09;4961191;28;20091;-61
2022/01/20 10:19:54;;;;;;;29.83;7.50;;;;;;;1.54;87.16;100380.09;4966536;28;20296;-60
2022/01/20 10:22:24;;;;;;;17.02;5.45;;;;;;;1.50;88.33;100384.88;4980997;28;20053;-60
2022/01/20 10:25:08;;;;;;;16.95;4.68;;;;;;;1.49;89.63;100372.63;4974895;28;20029;-60
2022/01/20 10:27:44;;;;;;;21.40;4.43;;;;;;;1.47;88.32;100374.63;4977678;28;20221;-60
2022/01/20 10:30:11;;;;;;;19.92;4.88;;;;;;;1.68;88.13;100381.34;4972763;28;20025;-60
2022/01/20 10:32:44;;;;;;;18.10;5.28;;;;;;;1.70;87.95;100382.03;4975520;28;20441;-60
2022/01/20 10:35:10;;;;;;;20.00;5.13;;;;;;;1.76;87.24;100391.13;4975923;28;20345;-60
2022/01/20 10:37:36;;;;;;;14.20;4.43;;;;;;;1.80;86.26;100374.81;5000026;28;20369;-60
2022/01/20 10:40:09;;;;;;;18.92;5.28;;;;;;;2.02;86.30;100378.72;4970256;28;20320;-60
2022/01/20 10:42:42;;;;;;;21.73;4.38;;;;;;;2.05;85.62;100378.41;4978821;28;20602;-60
2022/01/20 10:45:22;;;;;;;18.15;4.00;;;;;;;2.31;82.30;100380.13;4978578;28;20058;-60
2022/01/20 10:47:56;;;;;;;13.80;3.80;;;;;;;2.38;80.56;100378.50;4981302;28;20026;-60
2022/01/20 10:50:24;;;;;;;20.65;4.47;;;;;;;2.50;81.09;100382.50;4974438;28;20152;-60
2022/01/20 10:52:51;;;;;;;13.77;3.83;;;;;;;2.46;79.59;100375.88;4979279;28;20031;-60
2022/01/20 10:55:25;;;;;;;10.90;3.40;;;;;;;2.52;80.00;100382.34;4982865;28;20338;-60
2022/01/20 10:57:54;;;;;;;7.50;3.40;;;;;;;2.68;80.39;100378.91;4984452;28;20242;-60
2022/01/20 11:00:21;;;;;;;14.40;3.22;;;;;;;2.78;78.99;100380.41;4966712;28;20026;-60
2022/01/20 11:02:55;;;;;;;14.48;3.92;;;;;;;2.77;78.93;100378.75;4975386;28;20113;-61
2022/01/20 11:05:21;;;;;;;12.70;3.00;;;;;;;2.67;78.90;100378.09;4971880;28;20508;-61
2022/01/20 11:07:46;;;;;;;21.42;3.20;;;;;;;2.72;76.59;100378.44;4975868;28;20030;-61
2022/01/20 11:10:12;;;;;;;11.45;2.97;;;;;;;2.71;77.65;100379.41;4980401;28;20036;-60
2022/01/20 11:12:38;;;;;;;14.57;2.65;;;;;;;2.58;77.54;100373.75;4977510;28;20182;-60
2022/01/20 11:15:08;;;;;;;18.95;3.97;;;;;;;2.60;78.00;100377.09;4988581;28;20561;-62
2022/01/20 11:17:35;;;;;;;21.88;4.28;;;;;;;2.43;77.74;100384.16;4979184;28;20065;-61
2022/01/20 11:20:05;;;;;;;17.15;3.80;;;;;;;2.41;77.34;100387.94;4980451;28;20030;-62
2022/01/20 11:22:30;;;;;;;15.13;3.47;;;;;;;2.45;78.49;100389.28;4981926;28;20797;-62
2022/01/20 11:25:01;;;;;;;16.20;4.05;;;;;;;2.35;77.45;100390.25;4971962;28;20087;-62
2022/01/20 11:27:41;;;;;;;14.15;3.30;;;;;;;2.37;76.83;100384.78;4976166;28;20122;-61
2022/01/20 11:30:13;;;;;;;13.38;2.88;;;;;;;2.46;74.73;100383.81;4994394;28;20025;-61
2022/01/20 11:32:39;;;;;;;25.08;2.60;;;;;;;2.56;74.79;100397.72;4963397;28;20512;-60
2022/01/20 11:35:06;;;;;;;12.73;2.63;;;;;;;2.62;73.46;100391.00;4963798;28;20043;-61
2022/01/20 11:37:37;;;;;;;11.93;2.13;;;;;;;2.84;74.80;100383.38;4977489;28;20038;-61
2022/01/20 11:40:13;;;;;;;8.85;2.75;;;;;;;3.53;73.40;100378.56;4978030;28;20050;-61
2022/01/20 11:42:38;;;;;;;14.52;2.67;;;;;;;3.38;72.98;100387.22;4981389;28;20027;-61
2022/01/20 11:45:26;;;;;;;13.73;2.28;;;;;;;3.39;72.83;100386.19;4984193;28;20030;-62
2022/01/20 11:47:51;;;;;;;19.63;2.70;;;;;;;2.97;73.24;100386.38;4976729;28;20061;-61
2022/01/20 11:50:17;;;;;;;16.30;3.45;;;;;;;2.99;73.65;100387.03;4982189;28;20038;-61
2022/01/20 11:52:43;;;;;;;16.25;3.28;;;;;;;2.84;72.68;100378.09;4979276;28;20026;-61
2022/01/20 11:55:15;;;;;;;17.27;3.42;;;;;;;2.78;75.27;100387.53;4978780;28;20053;-61
2022/01/20 11:57:40;;;;;;;18.00;4.65;;;;;;;2.85;75.80;100385.06;4977088;28;20084;-61
2022/01/20 12:00:27;;;;;;;25.73;4.28;;;;;;;2.72;74.34;100388.16;4992437;28;20233;-64
2022/01/20 12:02:53;;;;;;;15.10;3.25;;;;;;;2.71;74.18;100379.41;4983409;28;20591;-60
2022/01/20 12:05:20;;;;;;;24.70;7.47;;;;;;;2.67;76.02;100388.69;4977936;28;20235;-60
2022/01/20 12:07:45;;;;;;;9.80;3.17;;;;;;;2.52;75.37;100382.34;4980513;28;20096;-60
2022/01/20 12:10:25;;;;;;;14.80;4.53;;;;;;;2.78;74.40;100393.66;4980517;28;20026;-60
2022/01/20 12:12:51;;;;;;;16.75;4.72;;;;;;;2.76;75.11;100387.69;4974020;28;20026;-60
2022/01/20 12:15:20;;;;;;;19.40;3.67;;;;;;;2.70;77.03;100401.59;4981637;28;20038;-60
2022/01/20 12:17:53;;;;;;;10.57;2.78;;;;;;;2.62;77.68;100393.63;4988692;28;20034;-61
2022/01/20 12:20:19;;;;;;;20.48;3.20;;;;;;;2.62;77.55;100398.94;4990782;28;20034;-61
2022/01/20 12:22:44;;;;;;;6.78;2.05;;;;;;;2.30;73.92;100389.91;4970657;28;20034;-61
2022/01/20 12:25:18;;;;;;;19.80;4.03;;;;;;;2.58;74.96;100405.53;4958501;28;20830;-61
2022/01/20 12:27:43;;;;;;;15.75;3.20;;;;;;;2.34;72.68;100393.88;4987235;28;20034;-61
2022/01/20 12:30:23;;;;;;;11.10;3.05;;;;;;;2.52;73.60;100400.84;4976875;28;20031;-62